createdAt,value
2022-08-09T00:00:04.911Z,101992.78
2022-08-09T00:02:49.664Z,101991.63
2022-08-09T00:06:19.116Z,101990.38
2022-08-09T00:08:10.804Z,101992.44
2022-08-09T00:10:39.523Z,101990.97
2022-08-09T00:13:17.114Z,101993.78
2022-08-09T00:15:59.251Z,101990.94
2022-08-09T00:18:30.427Z,101988.16
2022-08-09T00:21:00.542Z,101990.28
2022-08-09T00:23:55.531Z,101987.00
2022-08-09T00:26:15.853Z,101988.81
2022-08-09T00:28:52.625Z,101984.91
2022-08-09T00:31:57.682Z,101985.38
2022-08-09T00:34:09.307Z,101983.38
2022-08-09T00:36:41.763Z,101987.53
2022-08-09T00:39:16.992Z,101987.53
2022-08-09T00:44:10.645Z,101985.56
2022-08-09T00:44:47.041Z,101989.16
2022-08-09T00:47:15.596Z,101991.50
2022-08-09T00:49:52.564Z,101977.44
2022-08-09T00:52:30.212Z,101988.69
2022-08-09T00:55:00.240Z,101985.31
2022-08-09T00:57:34.887Z,101989.41
2022-08-09T01:00:21.880Z,101989.00
2022-08-09T01:02:52.046Z,101985.47
2022-08-09T01:05:53.500Z,101986.59
2022-08-09T01:08:16.701Z,101984.06
2022-08-09T01:10:58.547Z,101984.91
2022-08-09T01:13:53.292Z,101985.75
2022-08-09T01:16:23.030Z,101982.66
2022-08-09T01:19:02.062Z,101986.00
2022-08-09T01:21:45.116Z,101983.78
2022-08-09T01:24:27.405Z,101980.88
2022-08-09T01:27:00.889Z,101986.75
2022-08-09T01:29:55.068Z,101985.34
2022-08-09T01:32:33.555Z,101988.03
2022-08-09T01:35:06.997Z,101984.13
2022-08-09T01:38:08.442Z,101982.09
2022-08-09T01:40:36.617Z,101985.50
2022-08-09T01:43:06.712Z,101988.16
2022-08-09T01:45:35.560Z,101985.50
2022-08-09T01:48:15.608Z,101986.34
2022-08-09T01:50:43.964Z,101987.50
2022-08-09T01:53:19.575Z,101990.59
2022-08-09T01:55:48.670Z,101993.13
2022-08-09T01:58:18.451Z,101989.06
2022-08-09T02:00:52.969Z,101987.94
2022-08-09T02:03:21.675Z,101990.34
2022-08-09T02:06:03.187Z,101985.28
2022-08-09T02:08:57.228Z,101990.63
2022-08-09T02:11:24.928Z,101985.56
2022-08-09T02:14:14.944Z,101986.41
2022-08-09T02:16:59.792Z,101985.97
2022-08-09T02:19:38.777Z,101983.63
2022-08-09T02:22:14.369Z,101993.44
2022-08-09T02:24:42.709Z,101976.19
2022-08-09T02:27:18.600Z,101993.97
2022-08-09T02:29:50.455Z,101997.38
2022-08-09T02:32:20.906Z,101991.19
2022-08-09T02:34:55.876Z,101991.59
2022-08-09T02:37:31.669Z,101990.06
2022-08-09T02:40:03.270Z,101995.97
2022-08-09T02:42:32.930Z,101994.97
2022-08-09T02:45:06.667Z,102001.16
2022-08-09T02:47:58.010Z,101994.84
2022-08-09T02:50:25.236Z,101994.41
2022-08-09T02:52:56.373Z,101998.06
2022-08-09T02:55:46.346Z,101994.97
2022-08-09T02:58:35.987Z,102002.84
2022-08-09T03:01:06.229Z,101995.81
2022-08-09T03:04:13.121Z,101995.25
2022-08-09T03:06:25.173Z,102001.44
2022-08-09T03:08:56.422Z,101998.50
2022-08-09T03:12:04.859Z,101994.13
2022-08-09T03:14:12.986Z,101997.50
2022-08-09T03:16:47.381Z,101995.81
2022-08-09T03:19:58.471Z,102004.25
2022-08-09T03:22:05.588Z,101996.63
2022-08-09T03:24:51.737Z,101994.94
2022-08-09T03:27:21.584Z,102001.53
2022-08-09T03:29:57.846Z,102005.88
2022-08-09T03:32:37.158Z,102006.84
2022-08-09T03:35:24.407Z,102000.41
2022-08-09T03:37:54.803Z,102003.50
2022-08-09T03:40:24.920Z,102004.91
2022-08-09T03:42:52.616Z,102009.25
2022-08-09T03:46:13.585Z,102010.09
2022-08-09T03:48:19.035Z,102015.91
2022-08-09T03:50:58.607Z,102010.56
2022-08-09T03:53:32.174Z,102021.06
2022-08-09T03:56:00.153Z,102011.69
2022-08-09T03:58:27.994Z,102014.34
2022-08-09T04:00:55.875Z,102023.59
2022-08-09T04:03:46.041Z,102015.75
2022-08-09T04:06:12.854Z,102024.31
2022-08-09T04:08:42.065Z,102027.69
2022-08-09T04:11:14.535Z,102026.72
2022-08-09T04:13:44.993Z,102022.22
2022-08-09T04:16:29.887Z,102028.41
2022-08-09T04:18:58.925Z,102031.34
2022-08-09T04:21:26.637Z,102035.69
2022-08-09T04:23:57.758Z,102032.19
2022-08-09T04:26:37.790Z,102037.53
2022-08-09T04:29:10.875Z,102034.88
2022-08-09T04:31:47.412Z,102042.56
2022-08-09T04:34:18.815Z,102045.06
2022-08-09T04:36:58.073Z,102047.16
2022-08-09T04:39:25.755Z,102044.53
2022-08-09T04:41:59.814Z,102045.53
2022-08-09T04:44:30.398Z,102039.63
2022-08-09T04:47:04.505Z,102053.25
2022-08-09T04:49:52.979Z,102052.13
2022-08-09T04:52:26.930Z,102061.41
2022-08-09T04:55:01.001Z,102059.03
2022-08-09T04:57:54.470Z,102063.91
2022-08-09T05:00:17.933Z,102066.47
2022-08-09T05:02:51.815Z,102073.91
2022-08-09T05:05:32.096Z,102074.19
2022-08-09T05:08:10.179Z,102066.03
2022-08-09T05:10:42.401Z,102073.19
2022-08-09T05:13:10.906Z,102071.63
2022-08-09T05:15:42.924Z,102073.91
2022-08-09T05:18:42.563Z,102070.69
2022-08-09T05:21:14.259Z,102076.03
2022-08-09T05:24:00.166Z,102081.78
2022-08-09T05:26:37.048Z,102077.28
2022-08-09T05:29:17.530Z,102083.34
2022-08-09T05:31:57.255Z,102080.38
2022-08-09T05:34:31.340Z,102082.63
2022-08-09T05:37:06.273Z,102086.53
2022-08-09T05:39:35.808Z,102083.03
2022-08-09T05:42:07.485Z,102093.31
2022-08-09T05:44:36.551Z,102090.63
2022-08-09T05:47:05.980Z,102094.84
2022-08-09T05:50:15.599Z,102095.56
2022-08-09T05:52:30.757Z,102097.38
2022-08-09T05:55:03.249Z,102093.31
2022-08-09T05:57:56.191Z,102087.13
2022-08-09T06:00:23.179Z,102101.72
2022-08-09T06:02:54.375Z,102099.63
2022-08-09T06:05:30.625Z,102097.78
2022-08-09T06:08:13.500Z,102096.94
2022-08-09T06:10:46.924Z,102099.91
2022-08-09T06:13:18.595Z,102102.84
2022-08-09T06:15:51.443Z,102100.59
2022-08-09T06:18:20.404Z,102102.66
2022-08-09T06:20:54.943Z,102098.94
2022-08-09T06:23:55.076Z,102100.88
2022-08-09T06:26:20.560Z,102105.66
2022-08-09T06:28:49.409Z,102115.38
2022-08-09T06:31:17.080Z,102111.44
2022-08-09T06:33:59.264Z,102117.16
2022-08-09T06:36:29.809Z,102120.50
2022-08-09T06:38:59.631Z,102126.94
2022-08-09T06:42:07.957Z,102124.53
2022-08-09T06:44:19.242Z,102125.63
2022-08-09T06:46:54.950Z,102131.16
2022-08-09T06:49:44.799Z,102132.41
2022-08-09T06:52:11.997Z,102137.28
2022-08-09T06:54:41.984Z,102136.94
2022-08-09T06:57:11.889Z,102133.53
2022-08-09T07:00:50.758Z,102139.06
2022-08-09T07:02:29.403Z,102136.72
2022-08-09T07:04:59.850Z,102133.69
2022-08-09T07:07:59.510Z,102137.16
2022-08-09T07:10:24.019Z,102142.91
2022-08-09T07:12:58.363Z,102148.41
2022-08-09T07:16:39.285Z,102140.47
2022-08-09T07:18:15.046Z,102148.16
2022-08-09T07:20:43.372Z,102149.94
2022-08-09T07:23:18.973Z,102148.50
2022-08-09T07:27:53.217Z,102153.34
2022-08-09T07:30:25.272Z,102147.66
2022-08-09T07:32:54.838Z,102147.09
2022-08-09T07:35:23.161Z,102147.25
2022-08-09T07:37:54.051Z,102156.56
2022-08-09T07:40:37.354Z,102155.59
2022-08-09T07:43:17.461Z,102156.84
2022-08-09T07:45:45.707Z,102155.03
2022-08-09T07:48:25.439Z,102155.38
2022-08-09T07:52:04.861Z,102153.72
2022-08-09T07:54:08.826Z,102155.53
2022-08-09T07:56:38.735Z,102153.03
2022-08-09T07:59:15.890Z,102156.94
2022-08-09T08:01:55.704Z,102150.91
2022-08-09T08:04:31.913Z,102154.53
2022-08-09T08:07:09.546Z,102157.41
2022-08-09T08:10:05.661Z,102154.66
2022-08-09T08:12:43.703Z,102149.03
2022-08-09T08:15:18.015Z,102158.97
2022-08-09T08:17:57.968Z,102152.00
2022-08-09T08:20:30.606Z,102159.34
2022-08-09T08:23:03.651Z,102151.06
2022-08-09T08:25:40.010Z,102147.41
2022-08-09T08:28:14.265Z,102154.56
2022-08-09T08:30:45.385Z,102152.66
2022-08-09T08:33:22.847Z,102156.16
2022-08-09T08:35:58.142Z,102155.69
2022-08-09T08:38:28.667Z,102160.50
2022-08-09T08:40:58.327Z,102150.16
2022-08-09T08:43:27.796Z,102147.66
2022-08-09T08:46:33.006Z,102156.69
2022-08-09T08:48:54.195Z,102154.16
2022-08-09T08:51:23.166Z,102156.16
2022-08-09T08:54:03.530Z,102150.72
2022-08-09T08:56:35.490Z,102159.72
2022-08-09T08:59:07.703Z,102161.22
2022-08-09T09:01:53.401Z,102169.34
2022-08-09T09:04:31.930Z,102158.31
2022-08-09T09:07:11.059Z,102160.00
2022-08-09T09:10:01.542Z,102164.22
2022-08-09T09:12:35.419Z,102163.19
2022-08-09T09:15:06.719Z,102160.19
2022-08-09T09:17:49.182Z,102161.69
2022-08-09T09:20:21.968Z,102158.00
2022-08-09T09:22:55.517Z,102160.69
2022-08-09T09:26:01.536Z,102152.13
2022-08-09T09:29:03.073Z,102158.53
2022-08-09T09:31:17.217Z,102160.53
2022-08-09T09:34:17.961Z,102151.72
2022-08-09T09:36:52.834Z,102160.00
2022-08-09T09:39:23.257Z,102162.91
2022-08-09T09:41:52.165Z,102155.81
2022-08-09T09:44:31.617Z,102159.53
2022-08-09T09:47:07.824Z,102149.44
2022-08-09T09:49:56.247Z,102149.03
2022-08-09T09:52:52.485Z,102152.69
2022-08-09T09:55:28.385Z,102149.16
2022-08-09T09:58:15.847Z,102149.91
2022-08-09T10:00:52.476Z,102151.59
2022-08-09T10:03:40.804Z,102146.78
2022-08-09T10:06:12.749Z,102146.34
2022-08-09T10:08:54.396Z,102146.03
2022-08-09T10:12:12.080Z,102142.50
2022-08-09T10:14:30.362Z,102140.72
2022-08-09T10:17:39.579Z,102139.81
2022-08-09T10:19:58.158Z,102137.16
2022-08-09T10:22:34.286Z,102141.72
2022-08-09T10:25:10.752Z,102136.78
2022-08-09T10:27:57.358Z,102127.63
2022-08-09T10:32:13.639Z,102129.19
2022-08-09T10:34:04.558Z,102136.28
2022-08-09T10:36:04.853Z,102131.38
2022-08-09T10:38:55.869Z,102120.84
2022-08-09T10:41:22.021Z,102120.63
2022-08-09T10:44:01.265Z,102130.25
2022-08-09T10:47:20.605Z,102118.34
2022-08-09T10:50:04.586Z,102123.69
2022-08-09T10:52:49.960Z,102123.22
2022-08-09T10:55:25.098Z,102115.38
2022-08-09T10:57:56.105Z,102108.91
2022-08-09T11:00:57.000Z,102117.78
2022-08-09T11:03:51.425Z,102105.53
2022-08-09T11:06:22.995Z,102108.72
2022-08-09T11:08:53.363Z,102116.03
2022-08-09T11:11:24.033Z,102106.53
2022-08-09T11:14:28.157Z,102109.72
2022-08-09T11:16:57.362Z,102112.41
2022-08-09T11:20:17.959Z,102117.28
2022-08-09T11:23:02.905Z,102119.50
2022-08-09T11:25:46.158Z,102119.94
2022-08-09T11:28:56.687Z,102115.94
2022-08-09T11:31:49.333Z,102112.28
2022-08-09T11:34:28.376Z,102113.53
2022-08-09T11:36:58.802Z,102104.88
2022-08-09T11:39:33.477Z,102109.13
2022-08-09T11:42:09.414Z,102110.09
2022-08-09T11:44:48.310Z,102116.41
2022-08-09T11:47:16.282Z,102109.97
2022-08-09T11:50:55.202Z,102103.50
2022-08-09T11:54:00.602Z,102111.97
2022-08-09T11:56:41.945Z,102107.09
2022-08-09T11:59:12.153Z,102107.66
2022-08-09T12:02:16.397Z,102104.84
2022-08-09T12:04:32.426Z,102108.22
2022-08-09T12:07:08.180Z,102105.56
2022-08-09T12:09:37.049Z,102106.28
2022-08-09T12:12:13.120Z,102104.28
2022-08-09T12:15:03.959Z,102104.34
2022-08-09T12:17:44.787Z,102096.44
2022-08-09T12:20:16.289Z,102098.56
2022-08-09T12:22:50.357Z,102101.56
2022-08-09T12:25:37.614Z,102093.13
2022-08-09T12:29:12.149Z,102102.03
2022-08-09T12:30:59.331Z,102083.50
2022-08-09T12:33:51.495Z,102101.59
2022-08-09T12:36:31.421Z,102092.97
2022-08-09T12:39:01.437Z,102095.69
2022-08-09T12:41:38.157Z,102091.59
2022-08-09T12:44:10.325Z,102090.84
2022-08-09T12:46:49.262Z,102087.94
2022-08-09T12:49:21.337Z,102088.78
2022-08-09T12:52:02.223Z,102086.09
2022-08-09T12:56:10.641Z,102085.69
2022-08-09T12:57:39.372Z,102077.97
2022-08-09T13:00:19.003Z,102078.66
2022-08-09T13:02:55.551Z,102074.63
2022-08-09T13:05:35.460Z,102073.88
2022-08-09T13:08:21.319Z,102066.84
2022-08-09T13:11:13.413Z,102057.59
2022-08-09T13:14:38.011Z,102055.84
2022-08-09T13:16:48.346Z,102055.00
2022-08-09T13:20:08.665Z,102055.44
2022-08-09T13:22:37.483Z,102056.06
2022-08-09T13:25:12.213Z,102062.44
2022-08-09T13:27:48.697Z,102065.31
2022-08-09T13:30:49.269Z,102069.66
2022-08-09T13:33:24.341Z,102071.38
2022-08-09T13:36:24.502Z,102053.28
2022-08-09T13:38:54.894Z,102056.72
2022-08-09T13:41:58.992Z,102059.72
2022-08-09T13:44:17.102Z,102056.63
2022-08-09T13:47:27.326Z,102064.31
2022-08-09T13:49:37.834Z,102062.34
2022-08-09T13:52:09.143Z,102052.38
2022-08-09T13:54:43.016Z,102053.78
2022-08-09T13:57:37.315Z,102057.06
2022-08-09T14:00:12.428Z,102062.94
2022-08-09T14:03:03.911Z,102057.13
2022-08-09T14:05:58.390Z,102053.31
2022-08-09T14:08:18.784Z,102052.06
2022-08-09T14:10:50.635Z,102047.94
2022-08-09T14:14:14.696Z,102045.09
2022-08-09T14:16:14.041Z,102043.19
2022-08-09T14:18:45.975Z,102045.97
2022-08-09T14:21:20.223Z,102035.88
2022-08-09T14:23:55.087Z,102031.31
2022-08-09T14:26:32.090Z,102043.19
2022-08-09T14:29:03.717Z,102039.72
2022-08-09T14:31:52.160Z,102039.09
2022-08-09T14:34:31.609Z,102048.28
2022-08-09T14:37:07.421Z,102040.47
2022-08-09T14:39:40.129Z,102030.63
2022-08-09T14:42:12.752Z,102039.69
2022-08-09T14:44:48.369Z,102035.84
2022-08-09T14:47:41.387Z,102040.72
2022-08-09T14:50:06.552Z,102040.75
2022-08-09T14:52:35.138Z,102039.50
2022-08-09T14:55:03.842Z,102038.59
2022-08-09T14:57:43.017Z,102045.69
2022-08-09T15:00:12.622Z,102044.72
2022-08-09T15:02:40.594Z,102040.50
2022-08-09T15:05:10.470Z,102041.03
2022-08-09T15:07:38.501Z,102040.13
2022-08-09T15:10:14.217Z,102038.84
2022-08-09T15:12:45.327Z,102037.25
2022-08-09T15:15:15.747Z,102044.00
2022-08-09T15:17:47.323Z,102031.91
2022-08-09T15:21:54.683Z,102040.78
2022-08-09T15:24:01.338Z,102040.66
2022-08-09T15:25:58.270Z,102044.88
2022-08-09T15:28:33.395Z,102034.34
2022-08-09T15:31:08.758Z,102043.00
2022-08-09T15:34:27.381Z,102038.47
2022-08-09T15:36:29.146Z,102032.13
2022-08-09T15:38:58.705Z,102028.25
2022-08-09T15:41:31.196Z,102024.16
2022-08-09T15:44:02.333Z,102030.47
2022-08-09T15:46:34.540Z,102038.25
2022-08-09T15:49:20.584Z,102031.16
2022-08-09T15:52:05.032Z,102030.53
2022-08-09T15:54:46.255Z,102032.19
2022-08-09T15:57:18.788Z,102027.56
2022-08-09T15:59:51.430Z,102025.88
2022-08-09T16:02:19.843Z,102020.38
2022-08-09T16:04:55.390Z,102019.03
2022-08-09T16:07:23.771Z,102021.78
2022-08-09T16:10:04.188Z,102020.16
2022-08-09T16:12:33.503Z,102031.19
2022-08-09T16:15:05.836Z,102023.19
2022-08-09T16:17:54.260Z,102019.13
2022-08-09T16:20:27.724Z,102021.34
2022-08-09T16:22:58.349Z,102020.59
2022-08-09T16:25:39.534Z,102021.19
2022-08-09T16:28:08.084Z,102025.09
2022-08-09T16:30:44.586Z,102019.34
2022-08-09T16:33:23.241Z,102018.88
2022-08-09T16:35:56.352Z,102020.03
2022-08-09T16:38:26.528Z,102013.66
2022-08-09T16:40:55.499Z,102020.91
2022-08-09T16:43:24.338Z,102016.97
2022-08-09T16:45:56.689Z,102015.81
2022-08-09T16:48:40.829Z,102015.94
2022-08-09T16:51:13.824Z,102010.75
2022-08-09T16:54:02.556Z,102010.00
2022-08-09T16:56:31.416Z,102011.47
2022-08-09T16:58:59.535Z,102011.00
2022-08-09T17:01:33.917Z,102014.16
2022-08-09T17:04:03.608Z,102013.84
2022-08-09T17:07:09.283Z,102019.47
2022-08-09T17:09:45.563Z,102014.25
2022-08-09T17:12:09.668Z,102016.53
2022-08-09T17:14:37.580Z,102023.69
2022-08-09T17:17:26.012Z,102037.66
2022-08-09T17:20:29.847Z,102032.41
2022-08-09T17:22:50.398Z,102039.78
2022-08-09T17:25:23.479Z,102030.47
2022-08-09T17:27:54.591Z,102044.41
2022-08-09T17:30:26.127Z,102043.00
2022-08-09T17:33:00.678Z,102042.00
2022-08-09T17:35:35.867Z,102040.69
2022-08-09T17:38:12.452Z,102047.47
2022-08-09T17:40:52.442Z,102050.72
2022-08-09T17:43:33.654Z,102048.06
2022-08-09T17:46:06.918Z,102046.19
2022-08-09T17:48:39.904Z,102048.59
2022-08-09T17:51:18.568Z,102055.34
2022-08-09T17:53:52.822Z,102050.59
2022-08-09T17:56:27.568Z,102053.50
2022-08-09T17:58:58.696Z,102056.63
2022-08-09T18:01:40.737Z,102058.69
2022-08-09T18:04:17.772Z,102055.47
2022-08-09T18:06:49.772Z,102062.28
2022-08-09T18:09:22.640Z,102065.75
2022-08-09T18:12:15.443Z,102061.50
2022-08-09T18:14:53.681Z,102063.41
2022-08-09T18:17:27.633Z,102070.91
2022-08-09T18:21:00.836Z,102068.09
2022-08-09T18:23:05.488Z,102072.91
2022-08-09T18:25:53.401Z,102077.66
2022-08-09T18:30:35.614Z,102071.41
2022-08-09T18:31:11.622Z,102076.53
2022-08-09T18:33:40.191Z,102079.25
2022-08-09T18:36:14.270Z,102089.41
2022-08-09T18:39:02.216Z,102081.38
2022-08-09T18:41:35.024Z,102087.94
2022-08-09T18:44:10.705Z,102089.31
2022-08-09T18:46:46.545Z,102086.78
2022-08-09T18:49:32.258Z,102082.06
2022-08-09T18:52:13.524Z,102087.44
2022-08-09T18:54:49.834Z,102100.19
2022-08-09T18:57:23.043Z,102093.34
2022-08-09T18:59:55.640Z,102095.19
2022-08-09T19:02:30.715Z,102097.19
2022-08-09T19:05:14.614Z,102097.53
2022-08-09T19:08:03.902Z,102106.25
2022-08-09T19:10:39.321Z,102105.94
2022-08-09T19:13:22.559Z,102113.13
2022-08-09T19:15:59.358Z,102114.66
2022-08-09T19:18:35.129Z,102116.66
2022-08-09T19:21:09.516Z,102114.41
2022-08-09T19:24:33.078Z,102114.16
2022-08-09T19:26:32.215Z,102122.81
2022-08-09T19:29:03.277Z,102120.09
2022-08-09T19:31:45.468Z,102119.06
2022-08-09T19:34:21.607Z,102123.41
2022-08-09T19:36:51.327Z,102119.22
2022-08-09T19:39:43.760Z,102124.56
2022-08-09T19:42:09.570Z,102130.59
2022-08-09T19:44:43.510Z,102128.19
2022-08-09T19:47:11.439Z,102130.81
2022-08-09T19:50:07.499Z,102135.34
2022-08-09T19:52:27.979Z,102130.44
2022-08-09T19:54:58.977Z,102124.91
2022-08-09T19:57:26.985Z,102127.50
2022-08-09T20:00:05.882Z,102133.97
2022-08-09T20:04:26.120Z,102128.78
2022-08-09T20:05:26.901Z,102134.16
2022-08-09T20:07:59.671Z,102129.41
2022-08-09T20:10:34.851Z,102133.41
2022-08-09T20:13:08.342Z,102144.47
2022-08-09T20:16:35.697Z,102145.81
2022-08-09T20:18:28.030Z,102144.00
2022-08-09T20:20:57.347Z,102150.53
2022-08-09T20:23:39.898Z,102149.84
2022-08-09T20:26:13.286Z,102153.03
2022-08-09T20:28:48.651Z,102156.97
2022-08-09T20:31:18.548Z,102158.44
2022-08-09T20:33:52.426Z,102157.97
2022-08-09T20:36:27.195Z,102155.91
2022-08-09T20:39:28.318Z,102151.25
2022-08-09T20:41:46.496Z,102149.03
2022-08-09T20:44:16.926Z,102144.44
2022-08-09T20:46:55.333Z,102146.84
2022-08-09T20:49:27.415Z,102142.97
2022-08-09T20:51:56.633Z,102148.59
2022-08-09T20:54:25.542Z,102142.47
2022-08-09T20:56:58.234Z,102151.44
2022-08-09T21:00:19.347Z,102163.06
2022-08-09T21:02:18.596Z,102157.09
2022-08-09T21:05:53.708Z,102158.78
2022-08-09T21:07:40.404Z,102161.38
2022-08-09T21:10:09.185Z,102165.50
2022-08-09T21:12:40.255Z,102162.81
2022-08-09T21:15:12.609Z,102158.78
2022-08-09T21:18:21.862Z,102158.78
2022-08-09T21:20:30.229Z,102164.56
2022-08-09T21:22:58.637Z,102164.59
2022-08-09T21:25:56.311Z,102165.94
2022-08-09T21:28:35.153Z,102172.59
2022-08-09T21:31:16.736Z,102174.34
2022-08-09T21:33:51.019Z,102175.78
2022-08-09T21:36:23.443Z,102181.19
2022-08-09T21:38:57.287Z,102180.59
2022-08-09T21:42:04.588Z,102176.94
2022-08-09T21:44:33.444Z,102170.72
2022-08-09T21:47:03.897Z,102172.31
2022-08-09T21:49:40.586Z,102166.69
2022-08-09T21:52:15.116Z,102173.38
2022-08-09T21:54:49.460Z,102174.59
2022-08-09T21:57:37.154Z,102175.19
2022-08-09T22:00:12.659Z,102174.03
2022-08-09T22:02:43.622Z,102176.09
2022-08-09T22:05:23.610Z,102172.88
2022-08-09T22:08:04.519Z,102171.31
2022-08-09T22:10:33.246Z,102177.75
2022-08-09T22:13:07.570Z,102175.22
2022-08-09T22:15:40.876Z,102182.41
2022-08-09T22:18:12.304Z,102172.84
2022-08-09T22:20:40.762Z,102171.47
2022-08-09T22:23:10.630Z,102174.25
2022-08-09T22:26:07.453Z,102172.31
2022-08-09T22:28:32.958Z,102175.69
2022-08-09T22:31:02.902Z,102165.41
2022-08-09T22:33:42.686Z,102166.38
2022-08-09T22:36:19.456Z,102164.72
2022-08-09T22:38:48.715Z,102175.09
2022-08-09T22:41:16.747Z,102169.19
2022-08-09T22:44:02.697Z,102176.34
2022-08-09T22:48:15.362Z,102180.28
2022-08-09T22:49:21.925Z,102170.31
2022-08-09T22:51:57.263Z,102178.72
2022-08-09T22:54:27.223Z,102181.53
2022-08-09T22:56:57.098Z,102172.41
2022-08-09T22:59:55.796Z,102169.31
2022-08-09T23:02:20.141Z,102166.50
2022-08-09T23:04:53.668Z,102167.94
2022-08-09T23:08:22.528Z,102175.06
2022-08-09T23:10:30.146Z,102177.03
2022-08-09T23:12:58.183Z,102171.38
2022-08-09T23:15:26.529Z,102170.94
2022-08-09T23:17:55.895Z,102179.59
2022-08-09T23:20:26.022Z,102177.09
2022-08-09T23:22:54.136Z,102174.44
2022-08-09T23:25:22.101Z,102177.91
2022-08-09T23:28:12.525Z,102183.66
2022-08-09T23:30:37.904Z,102179.81
2022-08-09T23:33:07.188Z,102176.50
2022-08-09T23:36:04.732Z,102180.53
2022-08-09T23:38:23.062Z,102172.66
2022-08-09T23:40:51.752Z,102185.09
2022-08-09T23:43:19.900Z,102182.44
2022-08-09T23:45:48.041Z,102178.81
2022-08-09T23:48:18.115Z,102179.00
2022-08-09T23:50:46.346Z,102180.13
2022-08-09T23:53:15.154Z,102177.34
2022-08-09T23:55:49.328Z,102180.34
2022-08-09T23:58:25.817Z,102176.97
